Dogue, Virginia
Current Conditions -  °F | °C
As of 12:15 AM on Friday 28 Nov 2014 (Local Time) from KEZF Reporting Station
Clear Clear  
Wind Chill: 24°   Ceiling: Unl
Heat Index: 31°   Visibility: 10mi
Dew Point: 30°   Wind: 7mph
Humidity: 96%   Direction: 290°WNW
Pressure: 30.2"   Gusts: NA
Location:  38.23°N, 77.22°W
Report Text: KEZF 280515Z AUTO 29006KT 10SM CLR M01/M01 A3020 RMK AO2 T10081013
Loading
Personal Weather Stations






























Interactive Weather Map New forecast layout! Learn more

10-Day Weather Forecast

Advertisements
Track Severe Weather on mobile